Time;durP1;ratioP1;P1;durP2;ratioP2;P2;SDS_P1;SDS_P2;PMS_P1;PMS_P2;Temp;Humidity;BMP_temperature;BMP_pressure;BME280_temperature;BME280_humidity;BME280_pressure;Samples;Min_cycle;Max_cycle;Signal;HPM_P1;HPM_P2
2022/10/16 00:01:28;;;;;;;17.50;12.33;;;13.30;92.30;;;;;;5017766;28;20168;-88
2022/10/16 00:03:54;;;;;;;18.70;11.77;;;13.30;92.10;;;;;;5017679;28;20196;-89
2022/10/16 00:06:22;;;;;;;15.73;12.00;;;13.30;92.20;;;;;;5017862;28;20631;-88
2022/10/16 00:08:48;;;;;;;13.40;11.43;;;13.30;92.10;;;;;;5017662;28;20173;-87
2022/10/16 00:11:15;;;;;;;15.73;11.37;;;13.30;92.00;;;;;;5035206;28;20181;-87
2022/10/16 00:13:43;;;;;;;15.90;11.67;;;13.30;92.10;;;;;;5034904;28;20756;-87
2022/10/16 00:16:10;;;;;;;15.23;11.53;;;13.30;92.00;;;;;;5017266;28;20181;-88
2022/10/16 00:18:36;;;;;;;16.57;10.93;;;13.40;91.80;;;;;;5016131;28;20177;-87
2022/10/16 00:21:08;;;;;;;15.37;10.70;;;13.40;91.80;;;;;;5017755;28;20184;-87
2022/10/16 00:23:34;;;;;;;14.93;10.07;;;13.30;91.80;;;;;;5016977;28;20196;-87
2022/10/16 00:26:03;;;;;;;16.07;10.33;;;13.40;91.60;;;;;;5016996;28;20184;-87
2022/10/16 00:28:29;;;;;;;17.37;10.27;;;13.50;91.30;;;;;;5016972;28;20181;-87
2022/10/16 00:30:55;;;;;;;15.90;10.07;;;13.50;91.20;;;;;;5016956;28;20239;-87
2022/10/16 00:33:21;;;;;;;14.60;9.53;;;13.50;91.10;;;;;;5016984;28;20177;-87
2022/10/16 00:35:47;;;;;;;10.53;8.27;;;13.50;90.90;;;;;;5016793;28;20173;-87
2022/10/16 00:38:13;;;;;;;14.70;8.30;;;13.50;90.70;;;;;;5016863;28;20188;-87
2022/10/16 00:40:39;;;;;;;9.83;7.50;;;13.50;90.50;;;;;;5016733;28;20181;-87
2022/10/16 00:43:32;;;;;;;12.60;8.00;;;13.50;90.20;;;;;;5016690;28;20179;-88
2022/10/16 00:45:59;;;;;;;11.63;6.83;;;13.50;90.20;;;;;;5017420;28;20169;-88
2022/10/16 00:48:25;;;;;;;10.20;7.40;;;13.50;89.90;;;;;;5016683;28;20184;-87
2022/10/16 00:50:51;;;;;;;7.97;6.30;;;13.60;89.60;;;;;;5034479;28;20200;-87
2022/10/16 00:53:17;;;;;;;11.43;6.60;;;13.50;89.60;;;;;;5016753;28;20180;-87
2022/10/16 00:55:43;;;;;;;14.40;6.07;;;13.50;89.40;;;;;;5016807;28;20546;-87
2022/10/16 00:58:09;;;;;;;8.23;5.90;;;13.50;89.00;;;;;;5034130;28;20299;-87
2022/10/16 01:00:35;;;;;;;9.20;5.90;;;13.50;89.00;;;;;;5034390;28;20538;-87
2022/10/16 01:03:02;;;;;;;12.33;5.27;;;13.50;88.80;;;;;;5034116;28;20189;-87
2022/10/16 01:05:50;;;;;;;9.87;5.20;;;13.50;88.60;;;;;;5016240;28;20201;-87
2022/10/16 01:08:27;;;;;;;7.30;4.80;;;13.40;88.30;;;;;;5016307;28;20176;-87
2022/10/16 01:10:59;;;;;;;11.53;4.73;;;13.40;88.20;;;;;;5016166;28;20287;-87
2022/10/16 01:13:37;;;;;;;9.63;4.60;;;13.40;88.00;;;;;;5033910;28;20161;-87
2022/10/16 01:16:14;;;;;;;9.53;4.43;;;13.40;88.10;;;;;;5033902;28;20156;-87
2022/10/16 01:18:54;;;;;;;5.90;4.23;;;13.30;88.10;;;;;;5034045;28;20175;-87
2022/10/16 01:21:27;;;;;;;7.63;4.07;;;13.30;88.00;;;;;;5016241;28;20172;-87
2022/10/16 01:24:06;;;;;;;6.80;4.17;;;13.30;88.00;;;;;;5033612;28;20209;-87
2022/10/16 01:27:16;;;;;;;6.90;4.00;;;13.20;88.30;;;;;;5016115;28;20662;-87
2022/10/16 01:29:51;;;;;;;7.57;4.20;;;13.10;88.40;;;;;;5033247;28;20279;-87
2022/10/16 01:32:41;;;;;;;7.50;4.97;;;13.00;88.70;;;;;;5015864;28;20173;-87
2022/10/16 01:35:17;;;;;;;6.33;4.70;;;13.00;88.70;;;;;;5015887;28;20565;-87
2022/10/16 01:38:08;;;;;;;7.27;4.37;;;13.00;88.70;;;;;;5015858;28;20171;-87
2022/10/16 01:40:37;;;;;;;8.40;4.60;;;13.00;88.80;;;;;;5032838;28;20654;-88
2022/10/16 01:43:07;;;;;;;8.13;3.97;;;12.90;88.90;;;;;;5015798;28;20187;-87
2022/10/16 01:45:35;;;;;;;8.67;4.33;;;12.80;89.10;;;;;;5015704;28;20611;-87
2022/10/16 01:48:04;;;;;;;6.80;4.63;;;12.80;89.10;;;;;;5015985;28;20425;-87
2022/10/16 01:50:33;;;;;;;6.77;4.57;;;12.80;89.20;;;;;;5033553;28;20204;-87
2022/10/16 01:53:02;;;;;;;9.67;4.70;;;12.80;89.30;;;;;;5015592;28;20557;-87
2022/10/16 01:55:35;;;;;;;9.57;4.20;;;12.80;89.20;;;;;;5015573;28;20239;-87
2022/10/16 01:58:04;;;;;;;7.60;3.97;;;12.70;89.30;;;;;;5016056;28;20651;-87
2022/10/16 02:00:31;;;;;;;10.00;4.97;;;12.70;89.30;;;;;;5015675;28;20184;-87
2022/10/16 02:02:59;;;;;;;5.00;3.80;;;12.60;89.30;;;;;;5015505;28;20662;-87
2022/10/16 02:05:40;;;;;;;6.90;3.73;;;12.70;89.30;;;;;;5015463;28;20678;-87
2022/10/16 02:08:05;;;;;;;11.17;4.07;;;12.60;89.30;;;;;;5015431;28;20180;-87
2022/10/16 02:10:32;;;;;;;9.10;4.07;;;12.50;89.30;;;;;;5015332;28;20258;-87
2022/10/16 02:13:08;;;;;;;7.73;4.50;;;12.60;89.30;;;;;;5033234;28;20520;-87
2022/10/16 02:15:34;;;;;;;10.00;4.23;;;12.60;89.10;;;;;;5033188;28;20188;-87
2022/10/16 02:18:00;;;;;;;9.60;3.90;;;12.50;89.10;;;;;;5015572;28;20177;-88
2022/10/16 02:20:32;;;;;;;7.00;3.67;;;12.60;89.10;;;;;;5015423;28;20177;-89
2022/10/16 02:23:00;;;;;;;9.60;3.90;;;12.60;89.10;;;;;;5015329;28;20225;-89
2022/10/16 02:25:34;;;;;;;7.50;3.53;;;12.60;89.00;;;;;;5015376;28;20548;-89
2022/10/16 02:28:24;;;;;;;10.43;3.83;;;12.50;88.90;;;;;;5015291;28;20168;-89
2022/10/16 02:31:03;;;;;;;5.60;3.63;;;12.50;89.10;;;;;;5015252;28;20671;-88
2022/10/16 02:33:30;;;;;;;3.77;3.40;;;12.50;89.20;;;;;;5015328;28;20593;-88
2022/10/16 02:35:57;;;;;;;5.40;3.63;;;12.40;89.30;;;;;;5033213;28;20172;-88
2022/10/16 02:38:24;;;;;;;4.93;3.23;;;12.40;89.20;;;;;;5015639;28;20177;-89
2022/10/16 02:40:50;;;;;;;6.20;3.40;;;12.40;89.20;;;;;;5015793;28;20173;-89
2022/10/16 02:43:16;;;;;;;7.13;3.23;;;12.40;89.20;;;;;;5017965;28;20187;-89
2022/10/16 02:45:42;;;;;;;4.67;3.43;;;12.30;89.20;;;;;;5019000;28;20647;-89
2022/10/16 02:48:07;;;;;;;8.87;3.07;;;12.30;89.20;;;;;;5036681;28;20169;-89
2022/10/16 02:50:33;;;;;;;5.83;3.67;;;12.30;89.30;;;;;;5036751;28;20538;-89
2022/10/16 02:52:58;;;;;;;5.90;3.20;;;12.20;89.50;;;;;;5019496;28;20208;-89
2022/10/16 02:55:24;;;;;;;4.50;3.20;;;12.20;89.50;;;;;;5018787;28;20197;-89
2022/10/16 02:57:50;;;;;;;11.60;3.47;;;12.10;89.70;;;;;;5018788;28;20267;-89
2022/10/16 03:00:17;;;;;;;4.33;3.17;;;12.10;89.80;;;;;;5036746;28;20204;-89
2022/10/16 03:02:43;;;;;;;10.43;3.70;;;12.00;89.90;;;;;;5018584;28;20630;-89
2022/10/16 03:05:09;;;;;;;5.00;2.87;;;12.00;89.80;;;;;;5018644;28;20215;-89
2022/10/16 03:07:35;;;;;;;5.57;3.20;;;12.10;89.80;;;;;;5018457;28;20184;-89
2022/10/16 03:10:00;;;;;;;8.50;2.80;;;12.00;89.70;;;;;;5018466;28;20639;-89
2022/10/16 03:12:29;;;;;;;4.23;2.87;;;12.00;89.70;;;;;;5018522;28;20214;-88
2022/10/16 03:14:58;;;;;;;4.70;3.47;;;12.00;89.70;;;;;;5018753;28;20266;-88
2022/10/16 03:17:24;;;;;;;5.60;2.77;;;12.10;89.60;;;;;;5036240;28;20639;-88
2022/10/16 03:19:50;;;;;;;4.33;3.07;;;12.10;89.50;;;;;;5018595;28;20268;-89
2022/10/16 03:22:15;;;;;;;8.33;3.20;;;12.10;89.50;;;;;;5018142;28;20278;-89
2022/10/16 03:24:41;;;;;;;5.43;2.80;;;12.10;89.40;;;;;;5035936;28;20207;-88
2022/10/16 03:27:06;;;;;;;4.97;2.80;;;12.10;89.60;;;;;;5035982;28;20173;-89
2022/10/16 03:29:32;;;;;;;3.90;2.53;;;12.10;89.60;;;;;;5018209;28;20204;-89
2022/10/16 03:31:58;;;;;;;6.57;2.70;;;12.10;89.50;;;;;;5018225;28;20652;-89
2022/10/16 03:34:24;;;;;;;3.20;2.63;;;12.20;89.30;;;;;;5018072;28;20192;-89
2022/10/16 03:36:50;;;;;;;8.23;3.07;;;12.10;89.30;;;;;;5018562;28;20184;-88
2022/10/16 03:39:15;;;;;;;5.97;2.90;;;12.10;89.40;;;;;;5017971;28;20176;-89
2022/10/16 03:41:41;;;;;;;5.43;2.63;;;12.00;89.50;;;;;;5017968;28;20185;-88
2022/10/16 03:44:06;;;;;;;7.63;2.53;;;12.00;89.60;;;;;;5017963;28;20235;-89
2022/10/16 03:46:32;;;;;;;5.87;2.83;;;12.00;89.60;;;;;;5018011;28;20604;-89
2022/10/16 03:48:58;;;;;;;4.70;2.57;;;12.00;89.50;;;;;;5017838;28;20307;-89
2022/10/16 03:51:23;;;;;;;6.60;2.80;;;12.10;89.30;;;;;;5017849;28;20199;-89
2022/10/16 03:53:49;;;;;;;7.30;2.97;;;12.10;89.10;;;;;;5017766;28;20238;-88
2022/10/16 03:56:14;;;;;;;6.83;2.70;;;12.10;89.10;;;;;;5017678;28;20169;-88
2022/10/16 03:58:40;;;;;;;6.97;3.20;;;12.10;89.10;;;;;;5017752;28;20218;-89
2022/10/16 04:01:05;;;;;;;8.13;2.37;;;12.10;89.10;;;;;;5017710;28;20180;-88
2022/10/16 04:03:31;;;;;;;6.73;2.30;;;12.10;89.10;;;;;;5017650;28;20185;-89
2022/10/16 04:05:56;;;;;;;5.87;2.37;;;12.20;88.70;;;;;;5017962;28;20190;-89
2022/10/16 04:08:22;;;;;;;3.37;2.37;;;12.20;88.60;;;;;;5035215;28;20242;-89
2022/10/16 04:10:48;;;;;;;5.37;2.20;;;12.20;88.60;;;;;;5035270;28;20666;-89
2022/10/16 04:13:13;;;;;;;5.67;2.43;;;12.20;88.70;;;;;;5035341;28;20564;-88
2022/10/16 04:15:39;;;;;;;5.93;3.03;;;12.20;88.60;;;;;;5017437;28;20538;-88
2022/10/16 04:18:05;;;;;;;8.37;3.27;;;12.30;88.50;;;;;;5017320;28;20169;-88
2022/10/16 04:20:31;;;;;;;3.93;2.40;;;12.30;88.30;;;;;;5035016;28;20251;-88
2022/10/16 04:22:56;;;;;;;3.23;2.30;;;12.20;88.40;;;;;;5017478;28;20230;-88
2022/10/16 04:25:22;;;;;;;7.07;2.40;;;12.20;88.60;;;;;;5017169;28;20203;-88
2022/10/16 04:27:48;;;;;;;5.57;2.60;;;12.20;88.40;;;;;;5017233;28;20177;-88
2022/10/16 04:30:13;;;;;;;4.03;2.53;;;12.20;88.50;;;;;;5017451;28;20208;-88
2022/10/16 04:32:40;;;;;;;6.33;2.53;;;12.20;88.50;;;;;;5035138;28;20206;-88
2022/10/16 04:35:06;;;;;;;6.43;2.60;;;12.20;88.50;;;;;;5017003;28;20219;-88
2022/10/16 04:37:31;;;;;;;5.93;2.70;;;12.20;88.50;;;;;;5017121;28;20176;-88
2022/10/16 04:39:57;;;;;;;8.97;2.93;;;12.20;88.50;;;;;;5034695;28;20188;-88
2022/10/16 04:42:23;;;;;;;8.20;2.43;;;12.30;88.60;;;;;;5016965;28;20180;-88
2022/10/16 04:44:48;;;;;;;7.30;3.10;;;12.30;88.60;;;;;;5017758;28;20201;-88
2022/10/16 04:47:14;;;;;;;3.27;2.57;;;12.30;88.60;;;;;;5017095;28;20173;-88
2022/10/16 04:49:39;;;;;;;10.30;3.60;;;12.30;88.40;;;;;;5016706;28;20258;-88
2022/10/16 04:52:05;;;;;;;7.63;2.83;;;12.30;88.40;;;;;;5016903;28;20173;-88
2022/10/16 04:54:31;;;;;;;4.67;2.80;;;12.30;88.60;;;;;;5016701;28;20204;-88
2022/10/16 04:56:56;;;;;;;7.27;2.83;;;12.40;88.60;;;;;;5034322;28;20631;-87
2022/10/16 04:59:23;;;;;;;3.47;2.80;;;12.40;88.50;;;;;;5016641;28;20617;-88
2022/10/16 05:01:49;;;;;;;9.97;2.50;;;12.40;88.40;;;;;;5016518;28;20177;-88
2022/10/16 05:04:15;;;;;;;6.17;2.83;;;12.50;88.30;;;;;;5016686;28;20204;-87
2022/10/16 05:06:41;;;;;;;8.03;3.07;;;12.50;88.40;;;;;;5016171;28;20598;-87
2022/10/16 05:09:07;;;;;;;5.27;2.70;;;12.50;88.20;;;;;;5016374;28;20188;-87
2022/10/16 05:11:33;;;;;;;6.43;3.03;;;12.50;88.20;;;;;;5016499;28;20224;-88
2022/10/16 05:13:59;;;;;;;4.20;2.90;;;12.50;88.20;;;;;;5033865;28;20270;-88
2022/10/16 05:16:25;;;;;;;5.67;2.70;;;12.60;88.20;;;;;;5016494;28;20177;-88
2022/10/16 05:18:54;;;;;;;5.33;2.80;;;12.60;88.10;;;;;;5016293;28;20188;-87
2022/10/16 05:21:20;;;;;;;5.07;2.90;;;12.70;88.00;;;;;;5034235;28;20180;-88
2022/10/16 05:23:45;;;;;;;6.80;3.20;;;12.60;88.30;;;;;;5016610;28;20555;-87
2022/10/16 05:26:11;;;;;;;5.87;3.33;;;12.60;88.30;;;;;;5034120;28;20259;-87
2022/10/16 05:28:37;;;;;;;9.70;3.13;;;12.60;88.30;;;;;;5016088;28;20180;-87
2022/10/16 05:31:07;;;;;;;8.27;3.30;;;12.60;88.30;;;;;;5033640;28;20207;-87
2022/10/16 05:33:33;;;;;;;4.20;3.20;;;12.70;88.10;;;;;;5015930;28;20272;-87
2022/10/16 05:36:03;;;;;;;11.60;3.83;;;12.60;88.50;;;;;;5033685;28;20204;-88
2022/10/16 05:38:28;;;;;;;8.53;3.80;;;12.60;88.60;;;;;;5033795;28;20182;-88
2022/10/16 05:40:54;;;;;;;11.60;3.60;;;12.60;88.60;;;;;;5015920;28;20184;-87
2022/10/16 05:43:20;;;;;;;15.77;4.43;;;12.60;88.60;;;;;;5015956;28;20184;-87
2022/10/16 05:45:54;;;;;;;11.83;5.07;;;12.60;88.70;;;;;;5015790;28;20177;-87
2022/10/16 05:48:20;;;;;;;14.40;5.17;;;12.60;88.80;;;;;;5033472;28;20512;-87
2022/10/16 05:50:45;;;;;;;12.83;4.63;;;12.60;88.90;;;;;;5015609;28;20230;-87
2022/10/16 05:53:11;;;;;;;9.17;4.77;;;12.50;89.10;;;;;;5015675;28;20185;-87
2022/10/16 05:55:36;;;;;;;6.97;4.27;;;12.50;89.20;;;;;;5015649;28;20192;-87
2022/10/16 05:58:02;;;;;;;8.40;4.20;;;12.50;89.20;;;;;;5016455;28;20545;-88
2022/10/16 06:00:27;;;;;;;8.07;4.77;;;12.50;89.30;;;;;;5033221;28;20175;-87
2022/10/16 06:02:53;;;;;;;13.23;5.07;;;12.60;89.20;;;;;;5015704;28;20659;-88
2022/10/16 06:05:19;;;;;;;12.60;5.67;;;12.60;89.20;;;;;;5033064;28;20200;-87
2022/10/16 06:07:44;;;;;;;14.27;5.40;;;12.50;89.30;;;;;;5015471;28;20717;-87
2022/10/16 06:10:10;;;;;;;10.30;5.83;;;12.50;89.40;;;;;;5015501;28;20250;-88
2022/10/16 06:12:35;;;;;;;5.63;5.07;;;12.50;89.40;;;;;;5015513;28;20172;-88
2022/10/16 06:15:01;;;;;;;10.47;5.53;;;12.50;89.50;;;;;;5015488;28;20198;-88
2022/10/16 06:17:26;;;;;;;8.30;5.80;;;12.50;89.70;;;;;;5017348;28;20173;-87
2022/10/16 06:19:52;;;;;;;12.07;6.10;;;12.50;89.80;;;;;;5019616;28;20180;-87
2022/10/16 06:22:17;;;;;;;8.53;6.33;;;12.50;89.80;;;;;;5019341;28;20283;-87
2022/10/16 06:24:43;;;;;;;9.73;5.87;;;12.50;90.00;;;;;;5036951;28;20228;-87
2022/10/16 06:27:08;;;;;;;8.60;6.37;;;12.50;89.90;;;;;;5019373;28;20176;-88
2022/10/16 06:29:34;;;;;;;10.57;6.40;;;12.50;89.80;;;;;;5019189;28;20208;-87
2022/10/16 06:31:59;;;;;;;10.33;6.33;;;12.50;89.80;;;;;;5037137;28;20651;-88
2022/10/16 06:34:25;;;;;;;16.60;7.10;;;12.60;89.80;;;;;;5037086;28;20192;-88
2022/10/16 06:36:50;;;;;;;13.60;7.40;;;12.50;90.00;;;;;;5019257;28;20310;-88
2022/10/16 06:39:16;;;;;;;16.47;7.53;;;12.60;90.10;;;;;;5019142;28;20183;-88
2022/10/16 06:41:41;;;;;;;12.00;6.53;;;12.60;90.20;;;;;;5019154;28;20264;-88
2022/10/16 06:44:07;;;;;;;11.93;7.60;;;12.70;90.10;;;;;;5036879;28;20701;-88
2022/10/16 06:46:33;;;;;;;12.47;7.00;;;12.70;90.20;;;;;;5019042;28;20185;-87
2022/10/16 06:48:59;;;;;;;9.70;6.53;;;12.80;90.10;;;;;;5036945;28;20581;-88
2022/10/16 06:51:25;;;;;;;11.13;7.27;;;12.80;89.90;;;;;;5018937;28;20200;-87
2022/10/16 06:53:53;;;;;;;13.73;7.87;;;12.90;90.00;;;;;;5018891;28;20228;-87
2022/10/16 06:56:21;;;;;;;15.43;8.10;;;12.90;89.90;;;;;;5018895;28;20169;-87
2022/10/16 06:58:48;;;;;;;12.60;7.60;;;13.00;90.00;;;;;;5018958;28;20177;-87
2022/10/16 07:01:14;;;;;;;11.23;7.40;;;12.90;90.00;;;;;;5036441;28;20177;-88
2022/10/16 07:03:42;;;;;;;12.03;7.80;;;12.90;90.10;;;;;;5036338;28;20192;-87
2022/10/16 07:06:10;;;;;;;14.17;8.10;;;13.00;90.00;;;;;;5036403;28;20181;-87
2022/10/16 07:08:38;;;;;;;12.00;7.60;;;13.00;90.10;;;;;;5018900;28;20177;-87
2022/10/16 07:11:06;;;;;;;14.33;8.73;;;13.00;90.20;;;;;;5036219;28;20227;-87
2022/10/16 07:13:36;;;;;;;11.77;8.27;;;13.10;90.10;;;;;;5018364;28;20180;-87
2022/10/16 07:16:16;;;;;;;13.97;7.93;;;13.00;90.20;;;;;;5036140;28;20173;-87
2022/10/16 07:18:45;;;;;;;9.67;7.67;;;13.10;90.40;;;;;;5018335;28;20627;-87
2022/10/16 07:21:17;;;;;;;13.13;8.40;;;13.20;90.40;;;;;;5018279;28;20639;-87
2022/10/16 07:23:42;;;;;;;12.60;8.20;;;13.30;90.30;;;;;;5018600;28;20581;-87
2022/10/16 07:26:09;;;;;;;12.23;8.43;;;13.20;90.10;;;;;;5018263;28;20177;-87
2022/10/16 07:28:35;;;;;;;9.63;7.53;;;13.30;90.10;;;;;;5017659;28;20187;-87
2022/10/16 07:31:10;;;;;;;14.60;8.47;;;13.30;90.10;;;;;;5018331;28;20201;-87
2022/10/16 07:33:37;;;;;;;9.93;7.67;;;13.30;89.80;;;;;;5018167;28;20164;-87
2022/10/16 07:36:02;;;;;;;10.90;7.83;;;13.40;89.90;;;;;;5036062;28;20169;-87
2022/10/16 07:38:28;;;;;;;11.47;7.10;;;13.30;89.80;;;;;;5018063;28;20215;-87
2022/10/16 07:41:01;;;;;;;16.07;7.60;;;13.30;89.80;;;;;;5018136;28;20272;-87
2022/10/16 07:43:27;;;;;;;9.23;8.07;;;13.30;89.80;;;;;;5017763;28;20177;-87
2022/10/16 07:45:53;;;;;;;13.13;8.13;;;13.30;89.70;;;;;;5017877;28;20177;-87
2022/10/16 07:48:19;;;;;;;12.83;7.57;;;13.40;89.60;;;;;;5017876;28;20176;-87
2022/10/16 07:50:44;;;;;;;15.80;7.63;;;13.50;89.90;;;;;;5017859;28;20290;-87
2022/10/16 07:53:11;;;;;;;11.13;7.53;;;13.60;89.80;;;;;;5035391;28;20169;-88
2022/10/16 07:55:37;;;;;;;12.17;7.43;;;13.60;89.40;;;;;;5017714;28;20193;-87
2022/10/16 07:58:03;;;;;;;11.67;8.17;;;13.60;89.40;;;;;;5017708;28;20184;-86
2022/10/16 08:00:28;;;;;;;11.50;7.03;;;13.70;89.50;;;;;;5017890;28;20180;-87
2022/10/16 08:02:54;;;;;;;10.97;7.57;;;13.70;89.60;;;;;;5035241;28;20191;-87
2022/10/16 08:05:20;;;;;;;8.93;7.30;;;13.60;89.50;;;;;;5017542;28;20204;-87
2022/10/16 08:07:49;;;;;;;11.20;7.90;;;13.60;89.40;;;;;;5017518;28;20185;-86
2022/10/16 08:10:17;;;;;;;17.97;8.37;;;13.60;89.70;;;;;;5035278;28;20270;-87
2022/10/16 08:12:43;;;;;;;11.27;7.33;;;13.60;89.60;;;;;;5035052;28;20195;-85
2022/10/16 08:15:09;;;;;;;14.93;7.40;;;13.70;89.50;;;;;;5017284;28;20730;-87
2022/10/16 08:17:35;;;;;;;10.47;7.20;;;13.70;89.50;;;;;;5035388;28;20184;-87
2022/10/16 08:20:01;;;;;;;11.73;7.43;;;13.60;89.40;;;;;;5017286;28;20185;-87
2022/10/16 08:22:27;;;;;;;10.13;8.07;;;13.60;89.60;;;;;;5017047;28;20197;-87
2022/10/16 08:24:52;;;;;;;9.10;7.63;;;13.60;89.50;;;;;;5034909;28;20254;-86
2022/10/16 08:27:18;;;;;;;14.17;7.93;;;13.60;89.30;;;;;;5017101;28;20208;-86
2022/10/16 08:29:43;;;;;;;16.63;7.17;;;13.80;89.30;;;;;;5017061;28;20201;-86
2022/10/16 08:32:09;;;;;;;9.90;6.93;;;13.90;89.30;;;;;;5016934;28;20177;-86
2022/10/16 08:34:34;;;;;;;15.23;7.80;;;13.90;89.00;;;;;;5016926;28;20192;-86
2022/10/16 08:37:00;;;;;;;10.50;7.33;;;14.00;88.90;;;;;;5034848;28;20172;-86
2022/10/16 08:39:25;;;;;;;14.10;6.50;;;14.20;88.90;;;;;;5015980;28;20208;-86
2022/10/16 08:42:06;;;;;;;8.47;6.77;;;14.40;88.80;;;;;;5034265;28;20177;-86
2022/10/16 08:44:31;;;;;;;9.33;6.23;;;14.70;88.00;;;;;;5034281;28;20670;-86
2022/10/16 08:47:17;;;;;;;7.87;6.43;;;14.80;88.00;;;;;;5016680;28;20202;-86
2022/10/16 08:49:55;;;;;;;9.30;5.93;;;14.80;87.80;;;;;;5016581;28;20197;-86
2022/10/16 08:52:20;;;;;;;7.67;5.97;;;15.00;87.60;;;;;;5016560;28;20173;-86
2022/10/16 08:54:51;;;;;;;9.43;5.90;;;15.00;86.80;;;;;;5016408;28;20199;-86
2022/10/16 08:57:22;;;;;;;11.20;6.07;;;14.90;87.00;;;;;;5034490;28;20188;-86
2022/10/16 08:59:47;;;;;;;16.90;5.68;;;14.70;87.20;;;;;;5017099;28;20544;-87
2022/10/16 09:02:36;;;;;;;10.10;5.55;;;15.00;87.10;;;;;;5016457;28;20184;-86
2022/10/16 09:05:08;;;;;;;8.70;5.30;;;15.20;86.10;;;;;;5017188;28;20204;-86
2022/10/16 09:07:48;;;;;;;7.95;4.68;;;15.10;86.60;;;;;;5016341;28;20173;-86
2022/10/16 09:10:45;;;;;;;8.23;5.50;;;15.10;85.70;;;;;;5033885;28;20203;-86
2022/10/16 09:13:20;;;;;;;7.35;4.68;;;15.20;85.70;;;;;;5003963;28;20309;-86
2022/10/16 09:16:22;;;;;;;7.07;4.70;;;15.50;84.90;;;;;;5016659;28;20176;-86
2022/10/16 09:19:27;;;;;;;5.53;4.38;;;15.50;84.40;;;;;;5016273;28;20168;-84
2022/10/16 09:21:53;;;;;;;6.28;4.13;;;15.70;84.40;;;;;;5016463;28;20188;-86
2022/10/16 09:24:26;;;;;;;10.20;3.92;;;15.60;83.70;;;;;;5033744;28;20271;-85
2022/10/16 09:26:52;;;;;;;8.27;4.90;;;15.70;84.20;;;;;;5016067;28;20172;-87
2022/10/16 09:29:24;;;;;;;8.57;4.43;;;15.70;84.40;;;;;;5016025;28;20200;-87
2022/10/16 09:31:51;;;;;;;10.55;4.90;;;15.60;83.40;;;;;;5015991;28;20643;-86
2022/10/16 09:34:30;;;;;;;5.28;3.97;;;15.70;83.20;;;;;;5015849;28;20583;-86
2022/10/16 09:36:58;;;;;;;9.38;4.40;;;15.90;83.10;;;;;;5015781;28;20749;-86
2022/10/16 09:39:24;;;;;;;7.45;3.90;;;16.10;83.40;;;;;;5033796;28;20181;-87
2022/10/16 09:41:49;;;;;;;4.50;3.58;;;15.90;83.20;;;;;;5015805;28;20180;-86
2022/10/16 09:44:28;;;;;;;5.53;3.63;;;15.80;82.50;;;;;;5015741;28;20690;-87
2022/10/16 09:47:19;;;;;;;7.97;3.58;;;15.90;83.40;;;;;;5015557;28;20210;-86
2022/10/16 09:50:01;;;;;;;6.68;3.50;;;15.90;82.30;;;;;;5015660;28;20196;-86
2022/10/16 09:52:28;;;;;;;9.00;3.25;;;15.90;83.40;;;;;;5015367;28;20181;-86
2022/10/16 09:54:59;;;;;;;6.55;2.95;;;15.90;82.60;;;;;;5015402;28;20192;-86
2022/10/16 09:57:25;;;;;;;11.20;3.78;;;15.80;82.20;;;;;;5015513;28;20161;-86
2022/10/16 09:59:58;;;;;;;8.05;3.75;;;15.80;83.00;;;;;;5015861;28;20176;-86
2022/10/16 10:02:33;;;;;;;8.10;3.78;;;16.00;83.00;;;;;;5015515;28;20184;-85
2022/10/16 10:04:59;;;;;;;7.00;3.58;;;16.20;82.40;;;;;;5015519;28;20215;-87
2022/10/16 10:07:42;;;;;;;13.55;3.10;;;16.40;82.10;;;;;;5015542;28;20651;-86
2022/10/16 10:10:22;;;;;;;8.13;3.90;;;16.50;81.80;;;;;;5016131;28;20560;-87
2022/10/16 10:12:47;;;;;;;5.22;2.63;;;16.80;80.90;;;;;;5015514;28;20161;-87
2022/10/16 10:15:19;;;;;;;8.70;2.65;;;16.80;80.00;;;;;;5015417;28;20199;-87
2022/10/16 10:17:51;;;;;;;11.05;3.17;;;16.90;78.70;;;;;;5015512;28;20248;-87
2022/10/16 10:20:35;;;;;;;5.72;2.60;;;16.70;79.30;;;;;;5015513;28;20171;-87
2022/10/16 10:23:15;;;;;;;6.07;2.63;;;16.40;79.10;;;;;;5032895;28;20188;-87
2022/10/16 10:25:53;;;;;;;6.07;2.30;;;16.40;79.10;;;;;;5015394;28;20323;-86
2022/10/16 10:28:38;;;;;;;6.45;2.50;;;16.60;79.20;;;;;;5015288;28;20172;-86
2022/10/16 10:31:10;;;;;;;11.93;2.70;;;16.80;78.70;;;;;;5032858;28;20224;-85
2022/10/16 10:33:54;;;;;;;6.70;2.60;;;16.80;77.80;;;;;;5015175;28;20172;-86
2022/10/16 10:36:36;;;;;;;8.07;2.42;;;16.90;78.00;;;;;;5033160;28;20252;-86
2022/10/16 10:39:43;;;;;;;9.07;2.75;;;16.90;78.00;;;;;;5015172;28;20218;-86
2022/10/16 10:42:22;;;;;;;16.38;3.05;;;16.80;77.00;;;;;;5033201;28;20645;-87
2022/10/16 10:45:18;;;;;;;7.72;2.63;;;17.10;77.40;;;;;;5015059;28;20283;-86
2022/10/16 10:47:51;;;;;;;9.23;2.10;;;17.40;77.10;;;;;;5015282;28;20195;-87
2022/10/16 10:50:22;;;;;;;4.07;2.25;;;17.60;76.80;;;;;;5014959;28;20698;-86
2022/10/16 10:53:19;;;;;;;13.73;2.45;;;17.70;76.40;;;;;;5015145;28;20161;-87
2022/10/16 10:55:54;;;;;;;9.85;2.30;;;17.80;76.80;;;;;;5032739;28;20177;-87
2022/10/16 10:58:43;;;;;;;4.80;2.50;;;17.60;76.20;;;;;;5032760;28;20153;-87
2022/10/16 11:01:14;;;;;;;8.13;2.15;;;17.70;76.50;;;;;;5015127;28;20226;-87
2022/10/16 11:04:22;;;;;;;5.82;2.10;;;17.30;76.20;;;;;;5016833;28;20201;-88
2022/10/16 11:06:59;;;;;;;10.57;2.17;;;17.10;75.40;;;;;;5018673;28;20603;-87
2022/10/16 11:09:46;;;;;;;7.10;2.10;;;17.30;75.60;;;;;;5018730;28;20177;-87
2022/10/16 11:12:27;;;;;;;4.80;1.70;;;17.30;75.10;;;;;;5036507;28;20161;-87
2022/10/16 11:15:03;;;;;;;5.93;1.80;;;17.30;74.50;;;;;;5018444;28;20189;-87
2022/10/16 11:17:37;;;;;;;6.10;1.88;;;17.30;75.10;;;;;;5019534;28;20168;-88
2022/10/16 11:20:17;;;;;;;9.95;1.88;;;17.50;74.40;;;;;;5019457;28;20173;-88
2022/10/16 11:22:50;;;;;;;3.95;1.40;;;17.80;72.00;;;;;;5018624;28;20383;-87
2022/10/16 11:25:27;;;;;;;4.15;1.40;;;17.50;72.90;;;;;;5018268;28;20201;-89
2022/10/16 11:28:14;;;;;;;16.17;3.17;;;17.30;73.90;;;;;;5018764;28;20176;-89
2022/10/16 11:30:53;;;;;;;6.85;1.40;;;17.80;73.60;;;;;;5036109;28;20211;-86
2022/10/16 11:33:36;;;;;;;8.63;1.50;;;17.80;73.60;;;;;;5018053;28;20172;-86
2022/10/16 11:36:17;;;;;;;8.05;1.35;;;18.20;73.00;;;;;;5018085;28;20172;-86
2022/10/16 11:38:49;;;;;;;4.60;1.90;;;17.60;70.00;;;;;;5017981;28;20161;-86
2022/10/16 11:41:24;;;;;;;7.00;1.60;;;17.70;69.70;;;;;;5018077;28;20184;-86
2022/10/16 11:44:14;;;;;;;9.38;1.88;;;18.00;69.00;;;;;;5018512;28;20278;-86
2022/10/16 11:46:43;;;;;;;12.63;1.95;;;18.00;69.10;;;;;;5017875;28;20172;-87
2022/10/16 11:49:20;;;;;;;8.18;1.95;;;18.00;67.40;;;;;;5017801;28;20592;-86
2022/10/16 11:52:05;;;;;;;4.80;1.33;;;17.70;66.80;;;;;;5017794;28;20649;-86
2022/10/16 11:54:48;;;;;;;6.82;1.48;;;17.90;68.50;;;;;;5017628;28;20197;-85
2022/10/16 11:57:20;;;;;;;5.68;1.52;;;17.80;66.90;;;;;;5017707;28;20165;-85
2022/10/16 11:59:59;;;;;;;7.68;1.77;;;17.80;67.20;;;;;;5017629;28;20172;-85
2022/10/16 12:03:02;;;;;;;8.48;1.70;;;18.00;67.40;;;;;;5017581;28;20175;-85
2022/10/16 12:06:01;;;;;;;10.15;1.80;;;17.90;68.30;;;;;;5017408;28;20198;-85
2022/10/16 12:08:27;;;;;;;3.33;1.33;;;17.70;68.10;;;;;;5035197;28;20165;-85
2022/10/16 12:10:55;;;;;;;10.35;1.50;;;17.90;67.50;;;;;;5017788;28;20200;-86
2022/10/16 12:13:34;;;;;;;9.40;1.80;;;18.20;67.50;;;;;;5035215;28;20165;-85
2022/10/16 12:16:12;;;;;;;6.57;1.20;;;18.20;68.10;;;;;;5034948;28;20165;-85
2022/10/16 12:18:44;;;;;;;5.03;1.63;;;18.00;67.10;;;;;;5017169;28;20175;-85
2022/10/16 12:21:13;;;;;;;3.40;1.48;;;17.90;68.10;;;;;;5017286;28;20176;-85
2022/10/16 12:23:57;;;;;;;6.47;1.33;;;17.80;66.40;;;;;;5034695;28;20209;-86
2022/10/16 12:26:28;;;;;;;6.60;1.70;;;18.00;65.70;;;;;;5035202;28;20183;-85
2022/10/16 12:28:55;;;;;;;6.10;1.65;;;17.90;65.50;;;;;;5016931;28;20173;-86
2022/10/16 12:31:23;;;;;;;8.02;1.50;;;18.00;65.00;;;;;;5016881;28;20623;-86
2022/10/16 12:34:02;;;;;;;7.65;1.77;;;17.90;65.10;;;;;;5034769;28;20184;-86
2022/10/16 12:36:30;;;;;;;11.65;1.73;;;18.20;67.30;;;;;;5034852;28;20165;-85
2022/10/16 12:38:56;;;;;;;7.78;1.73;;;18.20;63.80;;;;;;5017105;28;20177;-86
2022/10/16 12:41:30;;;;;;;3.47;1.30;;;18.20;64.40;;;;;;5016758;28;20183;-85
2022/10/16 12:43:56;;;;;;;4.57;1.35;;;18.30;65.10;;;;;;5016686;28;20193;-85
2022/10/16 12:46:43;;;;;;;3.38;1.30;;;18.20;64.20;;;;;;5034343;28;20548;-85
2022/10/16 12:49:12;;;;;;;8.45;1.55;;;18.30;64.30;;;;;;5034142;28;20189;-85
2022/10/16 12:51:37;;;;;;;10.25;1.55;;;18.30;63.30;;;;;;5034186;28;20532;-84
2022/10/16 12:54:04;;;;;;;4.30;1.63;;;18.40;64.00;;;;;;5034170;28;20188;-85
2022/10/16 12:56:57;;;;;;;12.25;1.92;;;18.40;63.50;;;;;;5034272;28;20180;-84
2022/10/16 12:59:47;;;;;;;10.65;1.55;;;18.70;64.90;;;;;;5034439;28;20163;-85
2022/10/16 13:02:53;;;;;;;7.80;1.75;;;18.60;63.50;;;;;;5016648;28;20165;-86